createdAt,value
2019-03-17T00:00:19.159Z,1.81
2019-03-17T00:01:19.188Z,1.74
2019-03-17T00:02:19.210Z,1.86
2019-03-17T00:03:19.236Z,1.84
2019-03-17T00:04:30.697Z,1.78
2019-03-17T00:05:19.291Z,1.82
2019-03-17T00:06:19.314Z,1.79
2019-03-17T00:07:19.344Z,1.85
2019-03-17T00:08:19.365Z,1.81
2019-03-17T00:09:19.390Z,1.92
2019-03-17T00:10:19.413Z,1.88
2019-03-17T00:11:19.441Z,1.88
2019-03-17T00:12:19.466Z,1.85
2019-03-17T00:13:19.492Z,1.97
2019-03-17T00:14:19.517Z,1.97
2019-03-17T00:15:19.543Z,1.89
2019-03-17T00:16:19.567Z,2.00
2019-03-17T00:17:19.593Z,2.03
2019-03-17T00:18:19.620Z,1.88
2019-03-17T00:19:19.643Z,2.07
2019-03-17T00:20:19.669Z,2.05
2019-03-17T00:21:19.694Z,2.05
2019-03-17T00:22:19.724Z,2.03
2019-03-17T00:23:19.746Z,2.01
2019-03-17T00:24:19.774Z,2.12
2019-03-17T00:25:19.797Z,2.03
2019-03-17T00:26:19.828Z,2.04
2019-03-17T00:27:19.858Z,2.00
2019-03-17T00:28:19.873Z,2.05
2019-03-17T00:29:19.904Z,2.07
2019-03-17T00:30:19.925Z,2.14
2019-03-17T00:31:24.242Z,2.14
2019-03-17T00:32:19.981Z,2.19
2019-03-17T00:33:20.022Z,2.14
2019-03-17T00:34:20.027Z,2.08
2019-03-17T00:35:20.056Z,2.14
2019-03-17T00:36:20.079Z,2.16
2019-03-17T00:37:20.104Z,2.19
2019-03-17T00:38:20.130Z,2.21
2019-03-17T00:39:20.158Z,2.18
2019-03-17T00:40:20.183Z,2.19
2019-03-17T00:41:20.213Z,2.14
2019-03-17T00:42:20.239Z,2.10
2019-03-17T00:43:20.257Z,2.12
2019-03-17T00:44:20.284Z,2.21
2019-03-17T00:45:20.313Z,2.21
2019-03-17T00:46:20.335Z,2.14
2019-03-17T00:47:20.361Z,2.21
2019-03-17T00:48:20.386Z,2.22
2019-03-17T00:49:20.411Z,2.18
2019-03-17T00:50:20.440Z,2.19
2019-03-17T00:51:20.478Z,2.19
2019-03-17T00:52:20.489Z,2.21
2019-03-17T00:53:20.523Z,2.23
2019-03-17T00:54:20.538Z,2.15
2019-03-17T00:55:20.564Z,2.18
2019-03-17T00:56:20.591Z,2.12
2019-03-17T00:57:20.620Z,2.19
2019-03-17T00:58:20.645Z,2.18
2019-03-17T00:59:20.670Z,2.19
2019-03-17T01:00:20.693Z,2.16
2019-03-17T01:01:20.719Z,2.14
2019-03-17T01:02:20.746Z,2.10
2019-03-17T01:03:20.773Z,2.12
2019-03-17T01:04:20.796Z,2.14
2019-03-17T01:05:20.823Z,2.08
2019-03-17T01:06:20.851Z,2.14
2019-03-17T01:07:20.875Z,2.10
2019-03-17T01:08:20.899Z,2.10
2019-03-17T01:09:20.925Z,2.12
2019-03-17T01:10:20.954Z,2.08
2019-03-17T01:11:20.978Z,2.12
2019-03-17T01:12:21.000Z,2.08
2019-03-17T01:13:21.028Z,2.10
2019-03-17T01:14:21.058Z,2.08
2019-03-17T01:15:21.080Z,2.10
2019-03-17T01:16:21.104Z,2.14
2019-03-17T01:17:21.128Z,2.08
2019-03-17T01:18:21.157Z,2.07
2019-03-17T01:19:21.189Z,2.07
2019-03-17T01:20:21.209Z,2.14
2019-03-17T01:21:21.288Z,2.10
2019-03-17T01:22:21.259Z,2.10
2019-03-17T01:23:21.287Z,2.10
2019-03-17T01:24:21.331Z,2.07
2019-03-17T01:25:21.333Z,2.04
2019-03-17T01:26:21.363Z,2.05
2019-03-17T01:27:21.387Z,2.05
2019-03-17T01:28:21.413Z,2.01
2019-03-17T01:29:21.438Z,2.03
2019-03-17T01:30:21.463Z,2.00
2019-03-17T01:31:21.489Z,2.07
2019-03-17T01:32:21.519Z,2.07
2019-03-17T01:33:21.596Z,2.03
2019-03-17T01:34:21.568Z,1.97
2019-03-17T01:35:21.593Z,1.97
2019-03-17T01:36:21.622Z,1.92
2019-03-17T01:37:21.644Z,2.00
2019-03-17T01:38:21.670Z,2.00
2019-03-17T01:39:21.698Z,2.00
2019-03-17T01:40:21.727Z,2.03
2019-03-17T01:41:21.748Z,2.00
2019-03-17T01:42:21.778Z,2.12
2019-03-17T01:43:21.800Z,2.04
2019-03-17T01:44:21.829Z,2.03
2019-03-17T01:45:21.852Z,2.12
2019-03-17T01:46:21.881Z,2.12
2019-03-17T01:47:21.906Z,2.10
2019-03-17T01:48:21.932Z,2.15
2019-03-17T01:49:21.955Z,2.08
2019-03-17T01:50:21.984Z,2.10
2019-03-17T01:51:22.013Z,2.10
2019-03-17T01:52:22.039Z,2.10
2019-03-17T01:53:22.061Z,2.21
2019-03-17T01:54:22.086Z,2.23
2019-03-17T01:55:22.112Z,2.12
2019-03-17T01:56:22.137Z,2.12
2019-03-17T01:57:22.163Z,2.10
2019-03-17T01:58:22.190Z,2.12
2019-03-17T01:59:22.217Z,2.16
2019-03-17T02:00:22.242Z,2.16
2019-03-17T02:01:22.266Z,2.19
2019-03-17T02:02:22.299Z,2.22
2019-03-17T02:03:22.321Z,2.18
2019-03-17T02:04:22.347Z,2.16
2019-03-17T02:05:22.696Z,2.21
2019-03-17T02:06:22.394Z,2.19
2019-03-17T02:07:22.419Z,2.22
2019-03-17T02:08:22.448Z,2.26
2019-03-17T02:09:22.472Z,2.26
2019-03-17T02:10:22.497Z,2.22
2019-03-17T02:11:22.525Z,2.25
2019-03-17T02:12:22.549Z,2.32
2019-03-17T02:13:22.575Z,2.26
2019-03-17T02:14:22.601Z,2.30
2019-03-17T02:15:22.629Z,2.37
2019-03-17T02:16:22.657Z,2.28
2019-03-17T02:17:22.679Z,2.28
2019-03-17T02:18:22.704Z,2.36
2019-03-17T02:19:22.728Z,2.33
2019-03-17T02:20:22.754Z,2.33
2019-03-17T02:21:22.779Z,2.39
2019-03-17T02:22:22.809Z,2.39
2019-03-17T02:23:22.831Z,2.34
2019-03-17T02:24:22.856Z,2.34
2019-03-17T02:25:22.885Z,2.33
2019-03-17T02:26:22.910Z,2.34
2019-03-17T02:27:22.934Z,2.39
2019-03-17T02:28:22.960Z,2.46
2019-03-17T02:29:22.985Z,2.41
2019-03-17T02:30:23.015Z,2.40
2019-03-17T02:31:23.040Z,2.44
2019-03-17T02:32:23.064Z,2.36
2019-03-17T02:33:23.087Z,2.34
2019-03-17T02:34:23.117Z,2.37
2019-03-17T02:35:38.018Z,2.40
2019-03-17T02:36:23.167Z,2.44
2019-03-17T02:37:23.206Z,2.37
2019-03-17T02:38:23.218Z,2.44
2019-03-17T02:39:26.145Z,2.40
2019-03-17T02:40:23.269Z,2.54
2019-03-17T02:41:23.301Z,2.50
2019-03-17T02:42:23.323Z,2.46
2019-03-17T02:43:23.352Z,2.46
2019-03-17T02:44:23.374Z,2.52
2019-03-17T02:45:23.395Z,2.50
2019-03-17T02:46:23.425Z,2.54
2019-03-17T02:47:23.448Z,2.50
2019-03-17T02:48:23.478Z,2.55
2019-03-17T02:49:23.505Z,2.47
2019-03-17T02:50:23.526Z,2.61
2019-03-17T02:51:23.552Z,2.62
2019-03-17T02:52:23.578Z,2.44
2019-03-17T02:53:23.605Z,2.52
2019-03-17T02:54:23.630Z,2.52
2019-03-17T02:55:23.656Z,2.58
2019-03-17T02:56:23.681Z,2.51
2019-03-17T02:57:23.708Z,2.51
2019-03-17T02:58:23.731Z,2.46
2019-03-17T02:59:23.758Z,2.55
2019-03-17T03:00:23.783Z,2.47
2019-03-17T03:01:23.814Z,2.47
2019-03-17T03:02:23.834Z,2.51
2019-03-17T03:03:23.863Z,2.52
2019-03-17T03:04:23.885Z,2.52
2019-03-17T03:05:23.915Z,2.52
2019-03-17T03:06:23.939Z,2.50
2019-03-17T03:07:23.962Z,2.54
2019-03-17T03:08:24.046Z,2.50
2019-03-17T03:09:24.019Z,2.57
2019-03-17T03:10:24.039Z,2.57
2019-03-17T03:11:24.074Z,2.51
2019-03-17T03:12:24.092Z,2.51
2019-03-17T03:13:24.126Z,2.50
2019-03-17T03:14:24.155Z,2.54
2019-03-17T03:15:24.168Z,2.64
2019-03-17T03:16:24.196Z,2.61
2019-03-17T03:17:24.220Z,2.55
2019-03-17T03:18:24.260Z,2.62
2019-03-17T03:19:24.275Z,2.61
2019-03-17T03:20:24.301Z,2.59
2019-03-17T03:21:24.322Z,2.59
2019-03-17T03:22:24.448Z,2.57
2019-03-17T03:23:24.378Z,2.58
2019-03-17T03:24:24.400Z,2.59
2019-03-17T03:25:24.426Z,2.62
2019-03-17T03:26:24.456Z,2.64
2019-03-17T03:27:24.480Z,2.61
2019-03-17T03:28:24.507Z,2.57
2019-03-17T03:29:27.337Z,2.62
2019-03-17T03:30:24.557Z,2.54
2019-03-17T03:31:24.581Z,2.64
2019-03-17T03:32:24.608Z,2.59
2019-03-17T03:33:24.632Z,2.62
2019-03-17T03:34:24.659Z,2.58
2019-03-17T03:35:24.695Z,2.62
2019-03-17T03:36:24.714Z,2.59
2019-03-17T03:37:24.734Z,2.64
2019-03-17T03:38:24.762Z,2.64
2019-03-17T03:39:24.787Z,2.65
2019-03-17T03:40:24.818Z,2.68
2019-03-17T03:41:24.841Z,2.62
2019-03-17T03:42:24.864Z,2.61
2019-03-17T03:43:24.889Z,2.59
2019-03-17T03:44:24.915Z,2.62
2019-03-17T03:45:24.941Z,2.69
2019-03-17T03:46:24.972Z,2.65
2019-03-17T03:47:25.002Z,2.75
2019-03-17T03:48:25.023Z,2.73
2019-03-17T03:49:25.049Z,2.68
2019-03-17T03:50:25.081Z,2.72
2019-03-17T03:51:25.099Z,2.69
2019-03-17T03:52:25.138Z,2.73
2019-03-17T03:53:25.177Z,2.76
2019-03-17T03:54:25.176Z,2.76
2019-03-17T03:55:25.204Z,2.76
2019-03-17T03:56:25.231Z,2.76
2019-03-17T03:57:25.249Z,2.62
2019-03-17T03:58:25.275Z,2.73
2019-03-17T03:59:25.309Z,2.62
2019-03-17T04:00:25.335Z,2.69
2019-03-17T04:01:25.360Z,2.62
2019-03-17T04:02:25.382Z,2.68
2019-03-17T04:03:25.405Z,2.72
2019-03-17T04:04:25.432Z,2.76
2019-03-17T04:05:25.457Z,2.73
2019-03-17T04:06:27.089Z,2.79
2019-03-17T04:07:25.508Z,2.73
2019-03-17T04:08:25.537Z,2.69
2019-03-17T04:09:25.562Z,2.76
2019-03-17T04:10:25.584Z,2.65
2019-03-17T04:11:25.610Z,2.73
2019-03-17T04:12:25.746Z,2.73
2019-03-17T04:13:25.667Z,2.62
2019-03-17T04:14:25.689Z,2.61
2019-03-17T04:15:25.720Z,2.72
2019-03-17T04:16:25.741Z,2.75
2019-03-17T04:17:25.766Z,2.72
2019-03-17T04:18:25.794Z,2.65
2019-03-17T04:19:25.829Z,2.68
2019-03-17T04:20:25.844Z,2.76
2019-03-17T04:21:25.879Z,2.72
2019-03-17T04:22:25.899Z,2.70
2019-03-17T04:23:25.920Z,2.76
2019-03-17T04:24:25.957Z,2.72
2019-03-17T04:25:25.974Z,2.76
2019-03-17T04:26:25.998Z,2.83
2019-03-17T04:27:26.026Z,2.77
2019-03-17T04:28:26.049Z,2.79
2019-03-17T04:29:26.075Z,2.87
2019-03-17T04:30:26.102Z,2.82
2019-03-17T04:31:26.127Z,2.83
2019-03-17T04:32:26.153Z,2.85
2019-03-17T04:33:26.177Z,2.91
2019-03-17T04:34:26.204Z,2.90
2019-03-17T04:35:26.233Z,2.97
2019-03-17T04:36:39.098Z,2.88
2019-03-17T04:37:26.286Z,2.91
2019-03-17T04:38:26.312Z,2.94
2019-03-17T04:39:26.336Z,2.94
2019-03-17T04:40:26.360Z,2.95
2019-03-17T04:41:26.385Z,2.93
2019-03-17T04:42:26.418Z,2.94
2019-03-17T04:43:26.438Z,2.93
2019-03-17T04:44:26.468Z,2.93
2019-03-17T04:45:26.491Z,2.93
2019-03-17T04:46:26.514Z,3.01
2019-03-17T04:47:26.541Z,2.95
2019-03-17T04:48:26.578Z,2.91
2019-03-17T04:49:26.595Z,2.95
2019-03-17T04:50:26.620Z,2.94
2019-03-17T04:51:26.644Z,2.94
2019-03-17T04:52:26.674Z,3.03
2019-03-17T04:53:26.695Z,3.01
2019-03-17T04:54:26.721Z,3.00
2019-03-17T04:55:26.750Z,2.95
2019-03-17T04:56:26.777Z,2.94
2019-03-17T04:57:26.800Z,2.93
2019-03-17T04:58:26.885Z,2.95
2019-03-17T04:59:26.853Z,2.91
2019-03-17T05:00:26.880Z,3.01
2019-03-17T05:01:26.904Z,3.00
2019-03-17T05:02:26.932Z,3.03
2019-03-17T05:03:26.956Z,2.98
2019-03-17T05:04:26.982Z,3.00
2019-03-17T05:05:27.012Z,3.01
2019-03-17T05:06:27.034Z,2.97
2019-03-17T05:07:27.060Z,2.98
2019-03-17T05:08:27.087Z,3.03
2019-03-17T05:09:27.114Z,2.97
2019-03-17T05:10:27.141Z,3.01
2019-03-17T05:11:27.167Z,3.05
2019-03-17T05:12:27.193Z,3.01
2019-03-17T05:13:27.217Z,3.05
2019-03-17T05:14:27.245Z,3.05
2019-03-17T05:15:27.270Z,3.06
2019-03-17T05:16:27.321Z,3.01
2019-03-17T05:17:27.324Z,3.05
2019-03-17T05:18:27.351Z,3.11
2019-03-17T05:19:27.377Z,3.06
2019-03-17T05:20:27.404Z,3.05
2019-03-17T05:21:27.428Z,3.11
2019-03-17T05:22:27.454Z,3.11
2019-03-17T05:23:27.497Z,3.12
2019-03-17T05:24:27.510Z,3.19
2019-03-17T05:25:27.533Z,3.11
2019-03-17T05:26:27.612Z,3.21
2019-03-17T05:27:27.614Z,3.16
2019-03-17T05:28:27.612Z,3.16
2019-03-17T05:29:27.639Z,3.18
2019-03-17T05:30:27.665Z,3.21
2019-03-17T05:31:27.692Z,3.18
2019-03-17T05:32:27.720Z,3.21
2019-03-17T05:33:27.742Z,3.31
2019-03-17T05:34:27.775Z,3.19
2019-03-17T05:35:27.799Z,3.15
2019-03-17T05:36:27.822Z,3.19
2019-03-17T05:37:27.849Z,3.19
2019-03-17T05:38:27.875Z,3.31
2019-03-17T05:39:27.902Z,3.33
2019-03-17T05:40:27.928Z,3.29
2019-03-17T05:41:27.960Z,3.27
2019-03-17T05:42:27.985Z,3.33
2019-03-17T05:43:28.009Z,3.36
2019-03-17T05:44:28.035Z,3.41
2019-03-17T05:45:28.067Z,3.34
2019-03-17T05:46:28.087Z,3.31
2019-03-17T05:47:28.114Z,3.34
2019-03-17T05:48:28.141Z,3.34
2019-03-17T05:49:28.168Z,3.40
2019-03-17T05:50:28.196Z,3.45
2019-03-17T05:51:28.220Z,3.45
2019-03-17T05:52:28.249Z,3.43
2019-03-17T05:53:28.276Z,3.52
2019-03-17T05:54:28.303Z,3.36
2019-03-17T05:55:28.330Z,3.49
2019-03-17T05:56:28.355Z,3.56
2019-03-17T05:57:28.383Z,3.50
2019-03-17T05:58:28.408Z,3.46
2019-03-17T05:59:28.433Z,3.50
2019-03-17T06:00:28.461Z,3.53
2019-03-17T06:01:28.488Z,3.58
2019-03-17T06:02:28.513Z,3.52
2019-03-17T06:03:28.545Z,3.58
2019-03-17T06:04:28.568Z,3.55
2019-03-17T06:05:28.610Z,3.55
2019-03-17T06:06:28.623Z,3.56
2019-03-17T06:07:28.648Z,3.58
2019-03-17T06:08:28.674Z,3.59
2019-03-17T06:09:28.709Z,3.59
2019-03-17T06:10:28.731Z,3.64
2019-03-17T06:11:28.755Z,3.63
2019-03-17T06:12:28.787Z,3.59
2019-03-17T06:13:28.815Z,3.61
2019-03-17T06:14:28.858Z,3.61
2019-03-17T06:15:28.865Z,3.73
2019-03-17T06:16:28.890Z,3.77
2019-03-17T06:17:28.917Z,3.73
2019-03-17T06:18:28.947Z,3.73
2019-03-17T06:19:28.971Z,3.89
2019-03-17T06:20:29.001Z,3.77
2019-03-17T06:21:29.029Z,3.81
2019-03-17T06:22:29.064Z,3.89
2019-03-17T06:23:29.079Z,4.03
2019-03-17T06:24:29.110Z,4.02
2019-03-17T06:25:29.148Z,4.02
2019-03-17T06:26:29.162Z,4.09
2019-03-17T06:27:29.189Z,4.02
2019-03-17T06:28:29.215Z,3.94
2019-03-17T06:29:29.248Z,3.96
2019-03-17T06:30:29.271Z,4.02
2019-03-17T06:31:29.299Z,4.00
2019-03-17T06:32:29.333Z,4.00
2019-03-17T06:33:29.350Z,4.02
2019-03-17T06:34:29.379Z,4.09
2019-03-17T06:35:29.406Z,4.16
2019-03-17T06:36:29.434Z,4.13
2019-03-17T06:37:31.220Z,4.13
2019-03-17T06:38:29.490Z,4.18
2019-03-17T06:39:29.516Z,4.13
2019-03-17T06:40:29.548Z,4.12
2019-03-17T06:41:29.569Z,4.14
2019-03-17T06:42:29.596Z,4.20
2019-03-17T06:43:29.625Z,4.09
2019-03-17T06:44:29.655Z,4.16
2019-03-17T06:45:29.679Z,4.12
2019-03-17T06:46:29.709Z,4.16
2019-03-17T06:47:29.739Z,4.16
2019-03-17T06:48:29.763Z,4.18
2019-03-17T06:49:29.791Z,4.21
2019-03-17T06:50:29.817Z,4.16
2019-03-17T06:51:29.849Z,4.13
2019-03-17T06:52:29.874Z,4.28
2019-03-17T06:53:29.900Z,4.18
2019-03-17T06:54:29.930Z,4.27
2019-03-17T06:55:29.960Z,4.24
2019-03-17T06:56:30.017Z,4.32
2019-03-17T06:57:30.010Z,4.31
2019-03-17T06:58:30.038Z,4.45
2019-03-17T06:59:30.066Z,4.36
2019-03-17T07:00:30.093Z,4.30
2019-03-17T07:01:30.121Z,4.45
2019-03-17T07:02:30.149Z,4.45
2019-03-17T07:03:30.204Z,4.50
2019-03-17T07:04:30.208Z,4.50
2019-03-17T07:05:30.236Z,4.43
2019-03-17T07:06:30.259Z,4.53
2019-03-17T07:07:42.909Z,4.61
2019-03-17T07:08:30.315Z,4.52
2019-03-17T07:09:30.345Z,4.49
2019-03-17T07:10:30.376Z,4.52
2019-03-17T07:11:30.396Z,4.52
2019-03-17T07:12:30.426Z,4.63
2019-03-17T07:13:30.455Z,4.53
2019-03-17T07:14:30.485Z,4.63
2019-03-17T07:15:30.511Z,4.71
2019-03-17T07:16:30.538Z,4.75
2019-03-17T07:17:30.566Z,4.84
2019-03-17T07:18:30.594Z,4.94
2019-03-17T07:19:30.626Z,4.95
2019-03-17T07:20:30.655Z,4.86
2019-03-17T07:21:30.681Z,4.83
2019-03-17T07:22:30.710Z,4.76
2019-03-17T07:23:30.736Z,4.92
2019-03-17T07:24:30.766Z,4.97
2019-03-17T07:25:30.793Z,4.97
2019-03-17T07:26:30.823Z,4.98
2019-03-17T07:27:30.851Z,4.92
2019-03-17T07:28:30.878Z,4.89
2019-03-17T07:29:30.905Z,4.78
2019-03-17T07:30:30.938Z,4.68
2019-03-17T07:31:30.971Z,4.74
2019-03-17T07:32:30.995Z,4.75
2019-03-17T07:33:31.019Z,4.74
2019-03-17T07:34:31.050Z,4.70
2019-03-17T07:35:31.089Z,4.70
2019-03-17T07:36:31.107Z,4.78
2019-03-17T07:37:31.152Z,4.87
2019-03-17T07:38:31.163Z,4.70
2019-03-17T07:39:31.191Z,4.92
2019-03-17T07:40:31.222Z,4.84
2019-03-17T07:41:31.246Z,4.67
2019-03-17T07:42:32.617Z,4.74
2019-03-17T07:43:31.306Z,4.87
2019-03-17T07:44:31.336Z,4.90
2019-03-17T07:45:31.365Z,4.95
2019-03-17T07:46:31.396Z,4.90
2019-03-17T07:47:31.425Z,4.89
2019-03-17T07:48:31.458Z,4.95
2019-03-17T07:49:31.483Z,5.13
2019-03-17T07:50:31.511Z,5.08
2019-03-17T07:51:31.544Z,4.95
2019-03-17T07:52:31.566Z,5.12
2019-03-17T07:53:31.595Z,5.20
2019-03-17T07:54:31.624Z,5.22
2019-03-17T07:55:31.655Z,5.23
2019-03-17T07:56:31.689Z,5.15
2019-03-17T07:57:31.713Z,5.07
2019-03-17T07:58:31.744Z,5.00
2019-03-17T07:59:31.778Z,5.04
2019-03-17T08:00:32.545Z,4.92
2019-03-17T08:01:31.828Z,4.84
2019-03-17T08:02:31.857Z,4.94
2019-03-17T08:03:31.889Z,4.82
2019-03-17T08:04:41.965Z,4.89
2019-03-17T08:05:31.944Z,4.92
2019-03-17T08:06:31.973Z,4.97
2019-03-17T08:07:32.001Z,5.05
2019-03-17T08:08:32.106Z,5.26
2019-03-17T08:09:32.062Z,5.26
2019-03-17T08:10:32.090Z,5.36
2019-03-17T08:11:32.120Z,5.22
2019-03-17T08:12:32.152Z,5.38
2019-03-17T08:13:32.175Z,5.34
2019-03-17T08:14:32.205Z,5.29
2019-03-17T08:15:32.235Z,5.34
2019-03-17T08:16:32.264Z,5.47
2019-03-17T08:17:32.296Z,5.58
2019-03-17T08:18:32.320Z,5.58
2019-03-17T08:19:32.350Z,5.51
2019-03-17T08:20:32.379Z,5.70
2019-03-17T08:21:32.408Z,5.90
2019-03-17T08:22:32.438Z,5.81
2019-03-17T08:23:32.474Z,6.01
2019-03-17T08:24:32.499Z,5.97
2019-03-17T08:25:32.527Z,6.15
2019-03-17T08:26:32.561Z,6.13
2019-03-17T08:27:32.590Z,6.19
2019-03-17T08:28:32.614Z,6.22
2019-03-17T08:29:32.646Z,6.19
2019-03-17T08:30:32.675Z,6.22
2019-03-17T08:31:32.708Z,6.20
2019-03-17T08:32:32.735Z,6.26
2019-03-17T08:33:32.764Z,6.20
2019-03-17T08:34:32.792Z,6.16
2019-03-17T08:35:32.916Z,6.13
2019-03-17T08:36:32.855Z,6.19
2019-03-17T08:37:32.882Z,6.17
2019-03-17T08:38:32.912Z,6.16
2019-03-17T08:39:32.942Z,6.12
2019-03-17T08:40:32.974Z,6.01
2019-03-17T08:41:33.005Z,6.02
2019-03-17T08:42:33.033Z,6.07
2019-03-17T08:43:33.062Z,6.19
2019-03-17T08:44:33.094Z,6.17
2019-03-17T08:45:33.124Z,6.09
2019-03-17T08:46:33.153Z,6.17
2019-03-17T08:47:33.185Z,6.12
2019-03-17T08:48:33.212Z,6.32
2019-03-17T08:49:33.244Z,6.41
2019-03-17T08:50:33.273Z,6.38
2019-03-17T08:51:33.444Z,6.28
2019-03-17T08:52:34.459Z,6.36
2019-03-17T08:53:33.362Z,6.56
2019-03-17T08:54:33.390Z,6.74
2019-03-17T08:55:33.429Z,6.56
2019-03-17T08:56:33.455Z,6.60
2019-03-17T08:57:33.483Z,6.64
2019-03-17T08:58:33.512Z,6.60
2019-03-17T08:59:33.540Z,6.64
2019-03-17T09:00:33.573Z,6.56
2019-03-17T09:01:33.602Z,6.32
2019-03-17T09:02:33.633Z,6.34
2019-03-17T09:03:33.664Z,6.52
2019-03-17T09:04:33.699Z,6.60
2019-03-17T09:05:33.724Z,6.38
2019-03-17T09:06:33.753Z,6.34
2019-03-17T09:07:33.785Z,6.36
2019-03-17T09:08:35.269Z,6.26
2019-03-17T09:09:33.846Z,6.38
2019-03-17T09:10:33.874Z,6.28
2019-03-17T09:11:33.905Z,6.19
2019-03-17T09:12:33.940Z,6.31
2019-03-17T09:13:33.967Z,6.29
2019-03-17T09:14:33.996Z,6.17
2019-03-17T09:15:34.039Z,6.17
2019-03-17T09:16:34.057Z,6.01
2019-03-17T09:17:34.088Z,5.95
2019-03-17T09:18:34.115Z,5.98
2019-03-17T09:19:34.145Z,5.97
2019-03-17T09:20:34.175Z,5.95
2019-03-17T09:21:34.204Z,5.95
2019-03-17T09:22:34.234Z,5.87
2019-03-17T09:23:34.265Z,5.91
2019-03-17T09:24:34.297Z,5.90
2019-03-17T09:25:34.323Z,5.91
2019-03-17T09:26:34.356Z,5.95
2019-03-17T09:27:34.390Z,5.94
2019-03-17T09:28:34.414Z,5.83
2019-03-17T09:29:34.444Z,5.87
2019-03-17T09:30:34.522Z,5.88
2019-03-17T09:31:34.504Z,5.79
2019-03-17T09:32:34.534Z,5.80
2019-03-17T09:33:34.559Z,5.77
2019-03-17T09:34:34.589Z,5.87
2019-03-17T09:35:34.619Z,5.91
2019-03-17T09:36:34.649Z,5.92
2019-03-17T09:37:34.680Z,5.95
2019-03-17T09:38:46.447Z,5.84
2019-03-17T09:39:34.736Z,5.70
2019-03-17T09:40:34.766Z,5.77
2019-03-17T09:41:34.798Z,5.76
2019-03-17T09:42:34.827Z,5.70
2019-03-17T09:43:34.853Z,5.73
2019-03-17T09:44:34.883Z,5.77
2019-03-17T09:45:34.954Z,5.92
2019-03-17T09:46:34.951Z,5.77
2019-03-17T09:47:34.968Z,5.73
2019-03-17T09:48:34.999Z,5.73
2019-03-17T09:49:35.031Z,5.65
2019-03-17T09:50:35.056Z,5.64
2019-03-17T09:51:35.087Z,5.61
2019-03-17T09:52:35.115Z,5.67
2019-03-17T09:53:35.145Z,5.67
2019-03-17T09:54:35.175Z,5.69
2019-03-17T09:55:35.204Z,5.64
2019-03-17T09:56:35.235Z,5.58
2019-03-17T09:57:35.262Z,5.70
2019-03-17T09:58:35.293Z,5.59
2019-03-17T09:59:35.319Z,5.65
2019-03-17T10:00:35.347Z,5.59
2019-03-17T10:01:35.374Z,5.62
2019-03-17T10:02:35.418Z,5.58
2019-03-17T10:03:35.431Z,5.61
2019-03-17T10:04:35.464Z,5.55
2019-03-17T10:05:35.488Z,5.61
2019-03-17T10:06:35.517Z,5.64
2019-03-17T10:07:35.547Z,5.58
2019-03-17T10:08:35.579Z,5.59
2019-03-17T10:09:35.609Z,5.61
2019-03-17T10:10:35.635Z,5.61
2019-03-17T10:11:35.661Z,5.59
2019-03-17T10:12:35.691Z,5.59
2019-03-17T10:13:35.724Z,5.59
2019-03-17T10:14:35.748Z,5.47
2019-03-17T10:15:35.775Z,5.58
2019-03-17T10:16:35.805Z,5.59
2019-03-17T10:17:35.849Z,5.52
2019-03-17T10:18:35.862Z,5.44
2019-03-17T10:19:35.892Z,5.51
2019-03-17T10:20:35.920Z,5.47
2019-03-17T10:21:35.952Z,5.49
2019-03-17T10:22:35.998Z,5.54
2019-03-17T10:23:36.006Z,5.56
2019-03-17T10:24:36.047Z,5.49
2019-03-17T10:25:36.063Z,5.47
2019-03-17T10:26:36.091Z,5.43
2019-03-17T10:27:36.124Z,5.37
2019-03-17T10:28:36.147Z,5.41
2019-03-17T10:29:36.174Z,5.44
2019-03-17T10:30:36.212Z,5.52
2019-03-17T10:31:36.231Z,5.44
2019-03-17T10:32:36.265Z,5.49
2019-03-17T10:33:36.287Z,5.41
2019-03-17T10:34:36.315Z,5.51
2019-03-17T10:35:36.370Z,5.41
2019-03-17T10:36:36.372Z,5.49
2019-03-17T10:37:36.398Z,5.51
2019-03-17T10:38:36.437Z,5.47
2019-03-17T10:39:36.455Z,5.51
2019-03-17T10:40:36.489Z,5.46
2019-03-17T10:41:36.511Z,5.62
2019-03-17T10:42:36.546Z,5.61
2019-03-17T10:43:36.570Z,5.51
2019-03-17T10:44:36.597Z,5.46
2019-03-17T10:45:36.629Z,5.51
2019-03-17T10:46:36.653Z,5.43
2019-03-17T10:47:36.687Z,5.47
2019-03-17T10:48:36.711Z,5.41
2019-03-17T10:49:36.736Z,5.46
2019-03-17T10:50:48.759Z,5.41
2019-03-17T10:51:36.797Z,5.51
2019-03-17T10:52:36.822Z,5.49
2019-03-17T10:53:36.849Z,5.52
2019-03-17T10:54:36.882Z,5.59
2019-03-17T10:55:36.907Z,5.55
2019-03-17T10:56:36.940Z,5.52
2019-03-17T10:57:36.960Z,5.59
2019-03-17T10:58:36.988Z,5.52
2019-03-17T10:59:37.019Z,5.67
2019-03-17T11:00:37.047Z,5.67
2019-03-17T11:01:37.074Z,5.56
2019-03-17T11:02:37.107Z,5.55
2019-03-17T11:03:37.131Z,5.59
2019-03-17T11:04:37.160Z,5.56
2019-03-17T11:05:37.188Z,5.67
2019-03-17T11:06:37.215Z,5.74
2019-03-17T11:07:37.246Z,5.80
2019-03-17T11:08:37.333Z,5.79
2019-03-17T11:09:37.302Z,5.84
2019-03-17T11:10:37.328Z,5.77
2019-03-17T11:11:37.362Z,5.74
2019-03-17T11:12:37.384Z,5.81
2019-03-17T11:13:37.413Z,5.76
2019-03-17T11:14:37.441Z,5.77
2019-03-17T11:15:37.470Z,5.84
2019-03-17T11:16:37.496Z,5.90
2019-03-17T11:17:37.525Z,5.83
2019-03-17T11:18:37.554Z,5.91
2019-03-17T11:19:37.583Z,5.90
2019-03-17T11:20:37.613Z,5.77
2019-03-17T11:21:37.641Z,5.80
2019-03-17T11:22:37.667Z,5.88
2019-03-17T11:23:37.699Z,5.88
2019-03-17T11:24:37.726Z,5.84
2019-03-17T11:25:37.751Z,5.84
2019-03-17T11:26:37.782Z,5.91
2019-03-17T11:27:37.811Z,5.84
2019-03-17T11:28:37.843Z,5.95
2019-03-17T11:29:37.869Z,5.80
2019-03-17T11:30:37.895Z,5.88
2019-03-17T11:31:37.935Z,5.90
2019-03-17T11:32:37.951Z,5.91
2019-03-17T11:33:37.982Z,5.92
2019-03-17T11:34:38.011Z,5.91
2019-03-17T11:35:38.038Z,5.84
2019-03-17T11:36:38.066Z,5.90
2019-03-17T11:37:38.094Z,6.02
2019-03-17T11:38:38.122Z,5.98
2019-03-17T11:39:38.325Z,5.99
2019-03-17T11:40:38.183Z,5.94
2019-03-17T11:41:38.207Z,5.98
2019-03-17T11:42:38.236Z,6.01
2019-03-17T11:43:38.264Z,5.99
2019-03-17T11:44:38.295Z,5.94
2019-03-17T11:45:38.331Z,5.98
2019-03-17T11:46:38.350Z,5.91
2019-03-17T11:47:38.378Z,6.01
2019-03-17T11:48:38.407Z,5.98
2019-03-17T11:49:38.436Z,6.01
2019-03-17T11:50:38.469Z,6.07
2019-03-17T11:51:38.494Z,6.09
2019-03-17T11:52:38.524Z,6.10
2019-03-17T11:53:38.552Z,6.12
2019-03-17T11:54:38.588Z,6.15
2019-03-17T11:55:38.613Z,6.10
2019-03-17T11:56:38.638Z,6.16
2019-03-17T11:57:38.665Z,6.15
2019-03-17T11:58:38.696Z,6.17
2019-03-17T11:59:38.746Z,6.09
2019-03-17T12:00:38.753Z,6.09
2019-03-17T12:01:38.779Z,6.01
2019-03-17T12:02:38.814Z,6.01
2019-03-17T12:03:38.838Z,5.98
2019-03-17T12:04:38.866Z,5.98
2019-03-17T12:05:38.894Z,5.97
2019-03-17T12:06:38.923Z,5.97
2019-03-17T12:07:38.954Z,5.98
2019-03-17T12:08:38.980Z,5.98
2019-03-17T12:09:49.669Z,5.98
2019-03-17T12:10:39.040Z,5.98
2019-03-17T12:11:39.065Z,6.12
2019-03-17T12:12:39.097Z,6.06
2019-03-17T12:13:39.129Z,6.15
2019-03-17T12:14:39.152Z,6.05
2019-03-17T12:15:39.180Z,6.07
2019-03-17T12:16:39.214Z,6.01
2019-03-17T12:17:39.237Z,6.15
2019-03-17T12:18:39.265Z,6.17
2019-03-17T12:19:39.294Z,6.13
2019-03-17T12:20:39.324Z,6.05
2019-03-17T12:21:39.351Z,6.06
2019-03-17T12:22:39.378Z,5.97
2019-03-17T12:23:39.411Z,5.99
2019-03-17T12:24:39.441Z,6.01
2019-03-17T12:25:39.467Z,5.99
2019-03-17T12:26:39.493Z,6.01
2019-03-17T12:27:39.524Z,5.99
2019-03-17T12:28:39.552Z,5.98
2019-03-17T12:29:39.581Z,5.94
2019-03-17T12:30:39.608Z,5.99
2019-03-17T12:31:39.637Z,6.02
2019-03-17T12:32:39.665Z,5.99
2019-03-17T12:33:39.695Z,6.01
2019-03-17T12:34:39.721Z,6.05
2019-03-17T12:35:39.750Z,6.05
2019-03-17T12:36:39.778Z,5.97
2019-03-17T12:37:39.810Z,6.05
2019-03-17T12:38:39.836Z,5.98
2019-03-17T12:39:39.863Z,6.09
2019-03-17T12:40:39.891Z,6.07
2019-03-17T12:41:39.921Z,6.05
2019-03-17T12:42:39.949Z,5.98
2019-03-17T12:43:39.978Z,6.01
2019-03-17T12:44:40.005Z,6.05
2019-03-17T12:45:40.040Z,5.98
2019-03-17T12:46:40.063Z,5.98
2019-03-17T12:47:40.091Z,5.99
2019-03-17T12:48:40.120Z,6.01
2019-03-17T12:49:40.149Z,5.99
2019-03-17T12:50:40.179Z,5.95
2019-03-17T12:51:40.211Z,5.97
2019-03-17T12:52:40.241Z,5.92
2019-03-17T12:53:40.261Z,5.98
2019-03-17T12:54:40.289Z,6.05
2019-03-17T12:55:40.316Z,6.01
2019-03-17T12:56:40.345Z,5.98
2019-03-17T12:57:40.373Z,6.02
2019-03-17T12:58:40.404Z,6.02
2019-03-17T12:59:40.432Z,5.99
2019-03-17T13:00:40.459Z,6.05
2019-03-17T13:01:40.494Z,6.15
2019-03-17T13:02:40.518Z,6.06
2019-03-17T13:03:40.545Z,6.02
2019-03-17T13:04:40.574Z,6.06
2019-03-17T13:05:40.602Z,5.98
2019-03-17T13:06:40.631Z,6.09
2019-03-17T13:07:40.660Z,6.01
2019-03-17T13:08:40.694Z,5.98
2019-03-17T13:09:40.714Z,6.01
2019-03-17T13:10:40.742Z,6.06
2019-03-17T13:11:40.770Z,5.97
2019-03-17T13:12:40.803Z,6.01
2019-03-17T13:13:40.831Z,5.98
2019-03-17T13:14:40.857Z,5.95
2019-03-17T13:15:40.890Z,6.01
2019-03-17T13:16:40.913Z,6.06
2019-03-17T13:17:40.943Z,5.99
2019-03-17T13:18:40.970Z,6.01